createdAt,value
2022-08-20T00:01:02.174Z,100068.03
2022-08-20T00:03:35.984Z,100066.94
2022-08-20T00:06:09.695Z,100074.56
2022-08-20T00:08:37.466Z,100073.84
2022-08-20T00:11:07.186Z,100069.69
2022-08-20T00:13:43.970Z,100073.59
2022-08-20T00:16:12.230Z,100079.50
2022-08-20T00:18:39.800Z,100083.94
2022-08-20T00:21:08.506Z,100083.09
2022-08-20T00:23:39.894Z,100082.22
2022-08-20T00:26:07.695Z,100083.78
2022-08-20T00:28:34.337Z,100085.75
2022-08-20T00:31:05.261Z,100087.97
2022-08-20T00:33:32.072Z,100084.50
2022-08-20T00:35:59.391Z,100085.34
2022-08-20T00:38:25.871Z,100083.84
2022-08-20T00:40:56.270Z,100087.63
2022-08-20T00:43:38.415Z,100085.31
2022-08-20T00:46:15.804Z,100085.84
2022-08-20T00:48:45.031Z,100089.84
2022-08-20T00:51:35.652Z,100087.16
2022-08-20T00:54:19.121Z,100092.91
2022-08-20T00:56:49.900Z,100089.88
2022-08-20T00:59:22.781Z,100094.31
2022-08-20T01:01:55.616Z,100094.84
2022-08-20T01:04:25.113Z,100100.59
2022-08-20T01:06:51.989Z,100095.63
2022-08-20T01:09:18.430Z,100098.06
2022-08-20T01:12:07.625Z,100090.19
2022-08-20T01:14:34.440Z,100091.78
2022-08-20T01:17:05.291Z,100096.81
2022-08-20T01:19:38.808Z,100097.44
2022-08-20T01:22:26.724Z,100100.91
2022-08-20T01:25:01.171Z,100095.88
2022-08-20T01:27:28.311Z,100103.03
2022-08-20T01:29:57.761Z,100098.88
2022-08-20T01:32:24.338Z,100103.16
2022-08-20T01:34:50.712Z,100110.06
2022-08-20T01:37:17.142Z,100104.72
2022-08-20T01:39:43.669Z,100114.75
2022-08-20T01:42:37.925Z,100114.47
2022-08-20T01:45:27.667Z,100113.38
2022-08-20T01:47:54.550Z,100111.16
2022-08-20T01:50:26.011Z,100111.59
2022-08-20T01:52:57.240Z,100114.09
2022-08-20T01:55:24.091Z,100109.53
2022-08-20T01:57:50.633Z,100106.63
2022-08-20T02:00:19.150Z,100112.78
2022-08-20T02:02:46.754Z,100106.38
2022-08-20T02:05:13.304Z,100117.09
2022-08-20T02:07:39.769Z,100115.75
2022-08-20T02:10:08.149Z,100114.03
2022-08-20T02:12:35.225Z,100116.63
2022-08-20T02:15:01.701Z,100118.25
2022-08-20T02:17:28.197Z,100118.72
2022-08-20T02:19:59.375Z,100117.59
2022-08-20T02:22:37.724Z,100124.13
2022-08-20T02:25:06.589Z,100132.50
2022-08-20T02:27:33.087Z,100129.69
2022-08-20T02:29:59.562Z,100142.84
2022-08-20T02:32:33.994Z,100140.88
2022-08-20T02:35:03.581Z,100142.22
2022-08-20T02:37:31.028Z,100143.06
2022-08-20T02:39:57.653Z,100130.19
2022-08-20T02:42:24.113Z,100144.94
2022-08-20T02:44:50.579Z,100140.63
2022-08-20T02:47:17.255Z,100139.16
2022-08-20T02:49:43.804Z,100131.78
2022-08-20T02:52:10.278Z,100136.19
2022-08-20T02:54:36.886Z,100142.38
2022-08-20T02:57:04.205Z,100149.13
2022-08-20T02:59:30.938Z,100144.34
2022-08-20T03:02:00.466Z,100144.44
2022-08-20T03:04:31.259Z,100134.63
2022-08-20T03:06:58.595Z,100131.91
2022-08-20T03:09:25.249Z,100130.41
2022-08-20T03:11:52.766Z,100123.53
2022-08-20T03:14:19.497Z,100127.47
2022-08-20T03:16:45.885Z,100125.97
2022-08-20T03:19:13.851Z,100127.06
2022-08-20T03:21:40.648Z,100134.72
2022-08-20T03:24:07.224Z,100136.38
2022-08-20T03:26:33.713Z,100139.06
2022-08-20T03:29:00.153Z,100136.59
2022-08-20T03:31:26.593Z,100138.94
2022-08-20T03:33:53.853Z,100143.25
2022-08-20T03:36:28.731Z,100137.22
2022-08-20T03:39:00.611Z,100131.94
2022-08-20T03:41:28.629Z,100124.31
2022-08-20T03:43:55.077Z,100132.47
2022-08-20T03:46:22.270Z,100127.44
2022-08-20T03:48:59.936Z,100134.53
2022-08-20T03:51:28.793Z,100131.75
2022-08-20T03:53:55.265Z,100131.28
2022-08-20T03:56:21.708Z,100126.09
2022-08-20T03:58:48.141Z,100130.53
2022-08-20T04:01:37.016Z,100126.47
2022-08-20T04:04:01.231Z,100129.13
2022-08-20T04:06:29.188Z,100137.66
2022-08-20T04:08:56.611Z,100140.13
2022-08-20T04:11:24.119Z,100133.44
2022-08-20T04:13:50.599Z,100136.19
2022-08-20T04:16:18.086Z,100139.59
2022-08-20T04:19:01.335Z,100136.47
2022-08-20T04:21:33.526Z,100145.19
2022-08-20T04:24:02.221Z,100138.66
2022-08-20T04:26:29.112Z,100147.41
2022-08-20T04:28:55.868Z,100144.19
2022-08-20T04:31:25.387Z,100151.56
2022-08-20T04:33:52.176Z,100150.97
2022-08-20T04:36:18.625Z,100156.00
2022-08-20T04:38:49.759Z,100156.84
2022-08-20T04:41:22.764Z,100160.81
2022-08-20T04:43:51.395Z,100162.03
2022-08-20T04:46:17.833Z,100158.00
2022-08-20T04:48:49.129Z,100162.03
2022-08-20T04:51:18.306Z,100162.03
2022-08-20T04:53:50.379Z,100160.94
2022-08-20T04:56:23.545Z,100161.06
2022-08-20T04:58:52.272Z,100166.38
2022-08-20T05:01:19.034Z,100158.38
2022-08-20T05:03:47.634Z,100165.00
2022-08-20T05:06:14.173Z,100157.13
2022-08-20T05:08:40.610Z,100163.50
2022-08-20T05:11:32.602Z,100157.38
2022-08-20T05:13:55.813Z,100160.34
2022-08-20T05:16:23.979Z,100157.50
2022-08-20T05:18:52.515Z,100162.19
2022-08-20T05:21:20.194Z,100166.47
2022-08-20T05:23:47.005Z,100162.44
2022-08-20T05:26:15.672Z,100173.53
2022-08-20T05:28:57.447Z,100173.50
2022-08-20T05:31:33.007Z,100181.91
2022-08-20T05:34:09.362Z,100181.75
2022-08-20T05:36:40.486Z,100178.94
2022-08-20T05:39:08.793Z,100186.94
2022-08-20T05:41:35.443Z,100183.50
2022-08-20T05:44:01.939Z,100192.88
2022-08-20T05:46:31.234Z,100190.88
2022-08-20T05:48:59.692Z,100190.50
2022-08-20T05:51:26.660Z,100197.53
2022-08-20T05:53:53.092Z,100198.28
2022-08-20T05:56:19.496Z,100199.75
2022-08-20T05:58:53.083Z,100198.03
2022-08-20T06:01:24.198Z,100198.88
2022-08-20T06:04:09.465Z,100205.66
2022-08-20T06:06:46.002Z,100209.59
2022-08-20T06:09:30.595Z,100212.06
2022-08-20T06:11:59.682Z,100208.66
2022-08-20T06:14:26.555Z,100209.25
2022-08-20T06:16:57.787Z,100207.16
2022-08-20T06:19:26.225Z,100215.06
2022-08-20T06:21:52.986Z,100211.97
2022-08-20T06:24:21.205Z,100205.44
2022-08-20T06:26:47.684Z,100211.00
2022-08-20T06:29:15.660Z,100209.47
2022-08-20T06:31:42.139Z,100212.22
2022-08-20T06:34:08.568Z,100213.56
2022-08-20T06:36:34.951Z,100204.88
2022-08-20T06:39:01.416Z,100210.41
2022-08-20T06:41:37.029Z,100210.88
2022-08-20T06:44:04.651Z,100198.63
2022-08-20T06:46:32.229Z,100209.91
2022-08-20T06:48:59.010Z,100211.19
2022-08-20T06:51:25.417Z,100199.63
2022-08-20T06:53:51.832Z,100200.88
2022-08-20T06:56:18.271Z,100201.59
2022-08-20T06:58:44.719Z,100204.47
2022-08-20T07:01:12.389Z,100200.41
2022-08-20T07:03:42.183Z,100203.84
2022-08-20T07:06:21.946Z,100201.81
2022-08-20T07:08:48.494Z,100216.97
2022-08-20T07:11:14.899Z,100221.75
2022-08-20T07:13:41.934Z,100219.97
2022-08-20T07:16:08.587Z,100218.53
2022-08-20T07:18:35.035Z,100222.84
2022-08-20T07:21:01.465Z,100220.88
2022-08-20T07:23:28.239Z,100219.69
2022-08-20T07:25:55.668Z,100220.56
2022-08-20T07:28:25.066Z,100224.38
2022-08-20T07:31:13.528Z,100219.31
2022-08-20T07:33:41.397Z,100228.88
2022-08-20T07:36:09.055Z,100227.75
2022-08-20T07:38:36.965Z,100219.59
2022-08-20T07:41:09.888Z,100224.97
2022-08-20T07:43:36.361Z,100230.81
2022-08-20T07:46:08.805Z,100233.75
2022-08-20T07:48:39.790Z,100233.63
2022-08-20T07:51:08.518Z,100230.81
2022-08-20T07:53:38.937Z,100231.38
2022-08-20T07:56:07.771Z,100235.38
2022-08-20T07:58:36.540Z,100236.97
2022-08-20T08:01:05.587Z,100235.13
2022-08-20T08:03:39.804Z,100234.16
2022-08-20T08:06:17.229Z,100233.59
2022-08-20T08:08:55.750Z,100229.22
2022-08-20T08:11:22.655Z,100232.50
2022-08-20T08:13:49.149Z,100233.44
2022-08-20T08:16:15.731Z,100220.97
2022-08-20T08:18:48.715Z,100221.81
2022-08-20T08:21:16.431Z,100225.25
2022-08-20T08:23:44.408Z,100233.44
2022-08-20T08:26:16.224Z,100223.41
2022-08-20T08:28:45.730Z,100221.69
2022-08-20T08:31:12.829Z,100229.84
2022-08-20T08:33:40.637Z,100230.56
2022-08-20T08:36:12.715Z,100225.66
2022-08-20T08:38:42.198Z,100233.28
2022-08-20T08:41:31.179Z,100225.44
2022-08-20T08:44:14.450Z,100229.41
2022-08-20T08:46:48.313Z,100231.97
2022-08-20T08:49:18.120Z,100228.53
2022-08-20T08:51:50.031Z,100237.63
2022-08-20T08:54:20.144Z,100234.75
2022-08-20T08:56:50.244Z,100231.81
2022-08-20T08:59:18.267Z,100235.97
2022-08-20T09:01:55.423Z,100220.81
2022-08-20T09:04:30.357Z,100227.78
2022-08-20T09:06:57.365Z,100222.28
2022-08-20T09:09:32.691Z,100226.47
2022-08-20T09:12:09.445Z,100217.34
2022-08-20T09:14:37.065Z,100210.75
2022-08-20T09:17:04.773Z,100217.97
2022-08-20T09:19:31.828Z,100217.13
2022-08-20T09:21:58.327Z,100210.78
2022-08-20T09:24:25.116Z,100219.44
2022-08-20T09:26:51.514Z,100210.22
2022-08-20T09:29:18.033Z,100210.53
2022-08-20T09:31:44.432Z,100214.88
2022-08-20T09:34:11.696Z,100213.34
2022-08-20T09:36:38.128Z,100213.84
2022-08-20T09:39:04.577Z,100216.38
2022-08-20T09:41:33.583Z,100213.50
2022-08-20T09:44:00.979Z,100205.72
2022-08-20T09:46:27.731Z,100199.66
2022-08-20T09:48:54.774Z,100198.78
2022-08-20T09:51:21.780Z,100201.03
2022-08-20T09:53:48.956Z,100203.41
2022-08-20T09:56:16.076Z,100193.06
2022-08-20T09:58:51.653Z,100193.97
2022-08-20T10:01:20.006Z,100190.50
2022-08-20T10:03:48.782Z,100182.97
2022-08-20T10:06:17.723Z,100182.78
2022-08-20T10:08:44.259Z,100189.91
2022-08-20T10:11:10.714Z,100182.88
2022-08-20T10:13:37.187Z,100178.78
2022-08-20T10:16:04.144Z,100181.63
2022-08-20T10:18:30.594Z,100173.28
2022-08-20T10:20:57.036Z,100176.91
2022-08-20T10:23:23.435Z,100172.31
2022-08-20T10:25:49.842Z,100174.59
2022-08-20T10:28:16.359Z,100171.16
2022-08-20T10:30:45.014Z,100178.88
2022-08-20T10:33:11.428Z,100174.56
2022-08-20T10:35:37.831Z,100178.63
2022-08-20T10:38:04.221Z,100174.97
2022-08-20T10:40:30.625Z,100171.66
2022-08-20T10:42:57.049Z,100174.69
2022-08-20T10:45:25.828Z,100166.63
2022-08-20T10:47:52.426Z,100169.34
2022-08-20T10:50:19.983Z,100170.66
2022-08-20T10:52:47.104Z,100160.97
2022-08-20T10:55:14.114Z,100155.63
2022-08-20T10:57:41.638Z,100166.34
2022-08-20T11:00:13.351Z,100167.84
2022-08-20T11:02:40.187Z,100166.53
2022-08-20T11:05:08.194Z,100161.31
2022-08-20T11:07:55.046Z,100168.53
2022-08-20T11:10:25.567Z,100160.09
2022-08-20T11:12:52.140Z,100149.75
2022-08-20T11:15:18.572Z,100160.84
2022-08-20T11:17:45.685Z,100163.91
2022-08-20T11:20:14.542Z,100159.72
2022-08-20T11:22:40.957Z,100159.94
2022-08-20T11:25:08.136Z,100162.00
2022-08-20T11:27:38.959Z,100157.56
2022-08-20T11:30:08.179Z,100160.09
2022-08-20T11:32:34.653Z,100145.50
2022-08-20T11:35:06.659Z,100159.63
2022-08-20T11:37:40.570Z,100154.13
2022-08-20T11:40:09.097Z,100151.66
2022-08-20T11:42:36.053Z,100148.88
2022-08-20T11:45:08.581Z,100148.31
2022-08-20T11:47:37.260Z,100145.31
2022-08-20T11:50:05.336Z,100147.25
2022-08-20T11:52:32.039Z,100146.84
2022-08-20T11:54:59.047Z,100141.19
2022-08-20T11:57:28.775Z,100144.66
2022-08-20T11:59:57.139Z,100134.88
2022-08-20T12:02:24.179Z,100137.13
2022-08-20T12:04:55.146Z,100139.53
2022-08-20T12:07:24.547Z,100135.28
2022-08-20T12:09:51.557Z,100130.47
2022-08-20T12:12:20.405Z,100131.34
2022-08-20T12:14:46.973Z,100142.13
2022-08-20T12:17:14.781Z,100137.69
2022-08-20T12:19:42.525Z,100145.06
2022-08-20T12:22:21.349Z,100145.41
2022-08-20T12:24:53.501Z,100136.94
2022-08-20T12:27:26.418Z,100133.53
2022-08-20T12:29:55.683Z,100138.88
2022-08-20T12:32:24.591Z,100134.19
2022-08-20T12:34:51.847Z,100137.50
2022-08-20T12:37:22.831Z,100134.25
2022-08-20T12:39:52.922Z,100133.59
2022-08-20T12:42:20.377Z,100133.41
2022-08-20T12:44:47.057Z,100132.88
2022-08-20T12:47:24.110Z,100140.06
2022-08-20T12:49:56.542Z,100140.09
2022-08-20T12:52:24.481Z,100131.50
2022-08-20T12:54:51.639Z,100138.03
2022-08-20T12:57:26.468Z,100146.59
2022-08-20T12:59:52.909Z,100144.53
2022-08-20T13:02:19.311Z,100144.19
2022-08-20T13:04:45.776Z,100141.81
2022-08-20T13:07:13.073Z,100155.50
2022-08-20T13:09:40.536Z,100139.22
2022-08-20T13:12:08.009Z,100146.41
2022-08-20T13:14:35.045Z,100146.94
2022-08-20T13:17:02.565Z,100141.63
2022-08-20T13:19:31.167Z,100141.78
2022-08-20T13:21:57.616Z,100138.19
2022-08-20T13:24:24.113Z,100139.72
2022-08-20T13:26:50.907Z,100133.75
2022-08-20T13:29:18.871Z,100141.81
2022-08-20T13:31:45.431Z,100143.66
2022-08-20T13:34:11.942Z,100146.59
2022-08-20T13:36:38.598Z,100129.44
2022-08-20T13:39:06.787Z,100139.03
2022-08-20T13:41:33.503Z,100132.53
2022-08-20T13:43:59.927Z,100129.63
2022-08-20T13:46:26.345Z,100137.69
2022-08-20T13:48:52.743Z,100134.25
2022-08-20T13:51:19.295Z,100131.50
2022-08-20T13:53:48.182Z,100122.22
2022-08-20T13:56:14.852Z,100117.81
2022-08-20T13:58:41.273Z,100115.72
2022-08-20T14:01:07.782Z,100120.53
2022-08-20T14:03:35.069Z,100124.50
2022-08-20T14:06:03.103Z,100125.53
2022-08-20T14:08:29.711Z,100126.66
2022-08-20T14:10:56.387Z,100124.94
2022-08-20T14:13:25.675Z,100124.13
2022-08-20T14:15:52.551Z,100121.22
2022-08-20T14:18:19.912Z,100112.66
2022-08-20T14:20:46.500Z,100125.53
2022-08-20T14:23:13.860Z,100124.28
2022-08-20T14:25:41.079Z,100124.31
2022-08-20T14:28:22.569Z,100120.13
2022-08-20T14:30:52.821Z,100121.28
2022-08-20T14:33:19.785Z,100112.81
2022-08-20T14:35:46.188Z,100121.66
2022-08-20T14:38:12.606Z,100122.38
2022-08-20T14:40:39.143Z,100117.81
2022-08-20T14:43:05.604Z,100116.28
2022-08-20T14:45:32.309Z,100114.88
2022-08-20T14:47:59.421Z,100122.75
2022-08-20T14:50:32.366Z,100125.00
2022-08-20T14:53:00.104Z,100116.00
2022-08-20T14:55:33.783Z,100120.31
2022-08-20T14:58:00.296Z,100125.84
2022-08-20T15:00:30.362Z,100126.56
2022-08-20T15:02:57.607Z,100119.34
2022-08-20T15:05:24.659Z,100125.63
2022-08-20T15:07:53.798Z,100127.91
2022-08-20T15:10:27.354Z,100132.66
2022-08-20T15:12:54.635Z,100122.94
2022-08-20T15:15:21.810Z,100127.75
2022-08-20T15:17:51.401Z,100125.53
2022-08-20T15:20:21.637Z,100125.00
2022-08-20T15:22:49.176Z,100125.50
2022-08-20T15:25:17.946Z,100122.59
2022-08-20T15:27:44.441Z,100121.50
2022-08-20T15:30:14.849Z,100123.06
2022-08-20T15:32:41.395Z,100126.00
2022-08-20T15:35:11.187Z,100130.25
2022-08-20T15:37:45.858Z,100131.75
2022-08-20T15:40:16.861Z,100124.38
2022-08-20T15:42:43.820Z,100126.28
2022-08-20T15:45:14.538Z,100128.69
2022-08-20T15:48:01.452Z,100122.00
2022-08-20T15:50:37.881Z,100121.34
2022-08-20T15:53:10.549Z,100106.72
2022-08-20T15:55:44.032Z,100118.75
2022-08-20T15:58:22.583Z,100112.25
2022-08-20T16:01:25.204Z,100119.91
2022-08-20T16:04:12.476Z,100120.06
2022-08-20T16:06:40.421Z,100128.44
2022-08-20T16:09:06.787Z,100117.69
2022-08-20T16:12:16.417Z,100128.50
2022-08-20T16:14:47.568Z,100124.19
2022-08-20T16:17:19.501Z,100123.59
2022-08-20T16:20:14.651Z,100123.03
2022-08-20T16:22:45.980Z,100122.25
2022-08-20T16:25:14.718Z,100123.22
2022-08-20T16:28:05.144Z,100128.47
2022-08-20T16:30:42.957Z,100132.53
2022-08-20T16:34:33.003Z,100132.78
2022-08-20T16:37:03.620Z,100138.50
2022-08-20T16:39:45.965Z,100143.88
2022-08-20T16:42:20.731Z,100139.16
2022-08-20T16:44:50.233Z,100146.59
2022-08-20T16:47:25.741Z,100144.63
2022-08-20T16:50:14.491Z,100137.75
2022-08-20T16:52:43.855Z,100131.66
2022-08-20T16:55:12.111Z,100132.09
2022-08-20T16:57:38.746Z,100142.75
2022-08-20T17:00:15.086Z,100143.75
2022-08-20T17:03:02.669Z,100149.84
2022-08-20T17:05:47.131Z,100153.91
2022-08-20T17:08:24.594Z,100155.00
2022-08-20T17:11:11.269Z,100136.81
2022-08-20T17:13:41.026Z,100150.22
2022-08-20T17:16:20.818Z,100145.25
2022-08-20T17:18:53.392Z,100147.09
2022-08-20T17:21:32.523Z,100155.78
2022-08-20T17:24:02.933Z,100164.19
2022-08-20T17:26:37.515Z,100160.63
2022-08-20T17:29:34.692Z,100166.53
2022-08-20T17:32:15.889Z,100163.13
2022-08-20T17:34:48.730Z,100160.28
2022-08-20T17:37:40.546Z,100166.03
2022-08-20T17:40:19.941Z,100168.91
2022-08-20T17:42:53.985Z,100166.59
2022-08-20T17:45:35.929Z,100168.56
2022-08-20T17:48:04.864Z,100176.56
2022-08-20T17:50:38.672Z,100184.66
2022-08-20T17:53:22.557Z,100177.13
2022-08-20T17:55:52.765Z,100176.31
2022-08-20T17:58:24.904Z,100184.13
2022-08-20T18:00:51.347Z,100179.41
2022-08-20T18:03:24.819Z,100176.47
2022-08-20T18:06:00.513Z,100182.66
2022-08-20T18:08:50.999Z,100184.94
2022-08-20T18:11:25.806Z,100191.28
2022-08-20T18:14:18.578Z,100182.78
2022-08-20T18:17:13.044Z,100187.53
2022-08-20T18:19:48.410Z,100185.81
2022-08-20T18:22:26.616Z,100189.00
2022-08-20T18:25:14.994Z,100195.28
2022-08-20T18:27:46.630Z,100199.63
2022-08-20T18:30:19.551Z,100202.47
2022-08-20T18:32:49.410Z,100206.78
2022-08-20T18:35:45.693Z,100204.31
2022-08-20T18:38:22.100Z,100222.19
2022-08-20T18:40:53.128Z,100213.75
2022-08-20T18:43:30.407Z,100221.03
2022-08-20T18:46:19.809Z,100224.34
2022-08-20T18:48:51.676Z,100219.84
2022-08-20T18:51:21.324Z,100228.22
2022-08-20T18:53:51.763Z,100232.50
2022-08-20T18:56:30.588Z,100231.16
2022-08-20T18:59:11.843Z,100226.28
2022-08-20T19:01:42.696Z,100230.38
2022-08-20T19:04:29.926Z,100232.72
2022-08-20T19:07:01.654Z,100233.41
2022-08-20T19:09:55.784Z,100238.44
2022-08-20T19:12:59.833Z,100243.16
2022-08-20T19:15:27.569Z,100250.25
2022-08-20T19:18:16.744Z,100243.34
2022-08-20T19:20:52.624Z,100242.16
2022-08-20T19:23:22.393Z,100251.72
2022-08-20T19:25:57.077Z,100249.06
2022-08-20T19:28:44.224Z,100257.53
2022-08-20T19:31:24.366Z,100258.00
2022-08-20T19:34:19.725Z,100257.50
2022-08-20T19:36:59.419Z,100255.50
2022-08-20T19:39:35.309Z,100267.94
2022-08-20T19:42:08.754Z,100268.94
2022-08-20T19:44:40.615Z,100269.59
2022-08-20T19:47:19.433Z,100263.44
2022-08-20T19:49:57.838Z,100270.69
2022-08-20T19:52:48.629Z,100273.47
2022-08-20T19:55:25.785Z,100272.84
2022-08-20T19:57:55.483Z,100283.16
2022-08-20T20:00:25.091Z,100275.88
2022-08-20T20:02:51.543Z,100272.41
2022-08-20T20:05:18.205Z,100279.97
2022-08-20T20:07:51.641Z,100272.56
2022-08-20T20:10:32.558Z,100266.41
2022-08-20T20:13:10.079Z,100276.56
2022-08-20T20:15:38.104Z,100273.06
2022-08-20T20:18:05.671Z,100278.81
2022-08-20T20:20:38.313Z,100276.88
2022-08-20T20:23:38.442Z,100277.81
2022-08-20T20:26:17.756Z,100282.44
2022-08-20T20:28:48.014Z,100272.44
2022-08-20T20:31:23.977Z,100277.59
2022-08-20T20:33:57.700Z,100279.25
2022-08-20T20:36:32.820Z,100285.75
2022-08-20T20:39:04.791Z,100283.09
2022-08-20T20:41:32.007Z,100276.13
2022-08-20T20:44:06.841Z,100287.69
2022-08-20T20:46:35.783Z,100281.03
2022-08-20T20:49:21.742Z,100289.41
2022-08-20T20:52:05.364Z,100287.97
2022-08-20T20:54:44.591Z,100292.91
2022-08-20T20:57:16.762Z,100287.53
2022-08-20T20:59:45.224Z,100297.75
2022-08-20T21:02:11.855Z,100285.78
2022-08-20T21:04:42.517Z,100295.41
2022-08-20T21:07:12.679Z,100293.59
2022-08-20T21:09:40.989Z,100293.88
2022-08-20T21:12:09.433Z,100294.97
2022-08-20T21:14:36.779Z,100300.94
2022-08-20T21:17:05.626Z,100305.50
2022-08-20T21:19:33.715Z,100297.28
2022-08-20T21:22:09.328Z,100297.28
2022-08-20T21:24:35.815Z,100301.06
2022-08-20T21:27:03.896Z,100301.53
2022-08-20T21:29:32.667Z,100292.91
2022-08-20T21:32:00.243Z,100300.16
2022-08-20T21:34:26.838Z,100296.09
2022-08-20T21:36:53.282Z,100296.00
2022-08-20T21:39:21.116Z,100296.59
2022-08-20T21:41:48.057Z,100295.59
2022-08-20T21:44:22.746Z,100295.91
2022-08-20T21:46:52.977Z,100305.28
2022-08-20T21:49:19.840Z,100307.72
2022-08-20T21:51:47.059Z,100307.81
2022-08-20T21:54:13.596Z,100310.34
2022-08-20T21:56:40.744Z,100301.88
2022-08-20T21:59:08.734Z,100308.09
2022-08-20T22:01:38.521Z,100309.34
2022-08-20T22:04:06.548Z,100311.00
2022-08-20T22:06:33.026Z,100309.06
2022-08-20T22:08:59.578Z,100306.13
2022-08-20T22:11:26.545Z,100314.69
2022-08-20T22:13:53.034Z,100313.22
2022-08-20T22:16:21.259Z,100311.97
2022-08-20T22:18:49.800Z,100308.41
2022-08-20T22:21:21.359Z,100307.63
2022-08-20T22:23:48.464Z,100317.19
2022-08-20T22:26:16.183Z,100306.31
2022-08-20T22:28:42.775Z,100303.16
2022-08-20T22:31:09.921Z,100304.69
2022-08-20T22:33:38.004Z,100300.25
2022-08-20T22:36:06.435Z,100302.19
2022-08-20T22:38:33.154Z,100315.72
2022-08-20T22:40:59.545Z,100313.19
2022-08-20T22:43:25.953Z,100312.59
2022-08-20T22:45:55.514Z,100311.97
2022-08-20T22:48:22.032Z,100316.03
2022-08-20T22:50:49.536Z,100316.00
2022-08-20T22:53:18.143Z,100316.56
2022-08-20T22:55:45.167Z,100323.22
2022-08-20T22:58:12.553Z,100322.13
2022-08-20T23:00:39.578Z,100324.91
2022-08-20T23:03:07.062Z,100324.56
2022-08-20T23:05:36.495Z,100327.94
2022-08-20T23:08:05.558Z,100327.03
2022-08-20T23:10:37.074Z,100331.38
2022-08-20T23:13:04.846Z,100335.03
2022-08-20T23:15:34.691Z,100331.72
2022-08-20T23:18:05.456Z,100331.44
2022-08-20T23:20:32.059Z,100330.59
2022-08-20T23:22:58.852Z,100331.94
2022-08-20T23:25:25.719Z,100330.09
2022-08-20T23:27:56.359Z,100337.78
2022-08-20T23:30:30.028Z,100331.78
2022-08-20T23:32:56.727Z,100318.28
2022-08-20T23:35:23.851Z,100318.34
2022-08-20T23:37:57.943Z,100318.50
2022-08-20T23:40:28.225Z,100318.34
2022-08-20T23:42:54.978Z,100315.13
2022-08-20T23:45:21.750Z,100324.06
2022-08-20T23:47:48.478Z,100320.69
2022-08-20T23:50:17.488Z,100329.19
2022-08-20T23:52:44.259Z,100318.50
2022-08-20T23:55:11.293Z,100318.22
2022-08-20T23:57:39.143Z,100319.63
